You are listening to:
KFMY Del/Gnd/Twr - Fort Myers, Florida, United States

KFMY 020153Z AUTO 34003KT 10SM CLR 23/20 A3020 RMK AO2 SLP227 T02280200

If stream doesn't start automatically press the play button
If stream stops then reload player then press play